sensor_id;sensor_type;location;lat;lon;timestamp;pressure;altitude;pressure_sealevel;temperature;humidity
39301;BME280;25019;42.626;23.380;2023-04-30T00:01:57;94110.69;;;8.32;100.00
39301;BME280;25019;42.626;23.380;2023-04-30T00:04:23;94130.91;;;8.38;100.00
39301;BME280;25019;42.626;23.380;2023-04-30T00:06:49;94126.84;;;8.31;100.00
39301;BME280;25019;42.626;23.380;2023-04-30T00:09:14;94110.94;;;8.14;100.00
39301;BME280;25019;42.626;23.380;2023-04-30T00:11:40;94082.56;;;7.92;100.00
39301;BME280;25019;42.626;23.380;2023-04-30T00:14:06;94122.41;;;8.19;100.00
39301;BME280;25019;42.626;23.380;2023-04-30T00:16:32;94093.28;;;8.02;100.00
39301;BME280;25019;42.626;23.380;2023-04-30T00:18:57;94057.56;;;7.83;100.00
39301;BME280;25019;42.626;23.380;2023-04-30T00:21:23;94115.09;;;8.09;100.00
39301;BME280;25019;42.626;23.380;2023-04-30T00:23:49;94100.44;;;8.02;100.00
39301;BME280;25019;42.626;23.380;2023-04-30T00:26:15;94064.91;;;7.80;100.00
39301;BME280;25019;42.626;23.380;2023-04-30T00:28:44;94123.69;;;8.17;100.00
39301;BME280;25019;42.626;23.380;2023-04-30T00:31:10;94041.09;;;7.63;100.00
39301;BME280;25019;42.626;23.380;2023-04-30T00:33:35;94071.81;;;7.82;100.00
39301;BME280;25019;42.626;23.380;2023-04-30T00:36:03;94096.88;;;7.96;100.00
39301;BME280;25019;42.626;23.380;2023-04-30T00:38:29;94115.66;;;8.12;100.00
39301;BME280;25019;42.626;23.380;2023-04-30T00:40:55;94064.25;;;7.73;100.00
39301;BME280;25019;42.626;23.380;2023-04-30T00:43:21;94116.94;;;8.09;100.00
39301;BME280;25019;42.626;23.380;2023-04-30T00:45:46;94097.06;;;7.89;100.00
39301;BME280;25019;42.626;23.380;2023-04-30T00:48:12;94041.53;;;7.43;100.00
39301;BME280;25019;42.626;23.380;2023-04-30T00:50:38;94087.47;;;7.71;100.00
39301;BME280;25019;42.626;23.380;2023-04-30T00:53:05;94053.50;;;7.46;100.00
39301;BME280;25019;42.626;23.380;2023-04-30T00:55:31;94071.16;;;7.45;100.00
39301;BME280;25019;42.626;23.380;2023-04-30T00:57:58;94131.47;;;7.77;100.00
39301;BME280;25019;42.626;23.380;2023-04-30T01:00:26;94023.78;;;7.10;100.00
39301;BME280;25019;42.626;23.380;2023-04-30T01:02:52;94112.25;;;7.65;100.00
39301;BME280;25019;42.626;23.380;2023-04-30T01:05:18;94104.78;;;7.62;100.00
39301;BME280;25019;42.626;23.380;2023-04-30T01:07:44;94073.72;;;7.40;100.00
39301;BME280;25019;42.626;23.380;2023-04-30T01:10:12;94104.44;;;7.58;100.00
39301;BME280;25019;42.626;23.380;2023-04-30T01:18:03;94127.19;;;7.59;100.00
39301;BME280;25019;42.626;23.380;2023-04-30T01:20:31;94056.59;;;7.14;100.00
39301;BME280;25019;42.626;23.380;2023-04-30T01:23:13;94125.94;;;7.62;100.00
39301;BME280;25019;42.626;23.380;2023-04-30T01:28:31;94111.63;;;7.46;100.00
39301;BME280;25019;42.626;23.380;2023-04-30T01:30:59;94064.16;;;7.22;100.00
39301;BME280;25019;42.626;23.380;2023-04-30T01:33:25;94123.75;;;7.59;100.00
39301;BME280;25019;42.626;23.380;2023-04-30T01:36:04;94122.16;;;7.58;100.00
39301;BME280;25019;42.626;23.380;2023-04-30T01:41:53;94109.34;;;7.38;100.00
39301;BME280;25019;42.626;23.380;2023-04-30T01:52:52;94061.91;;;7.02;100.00
39301;BME280;25019;42.626;23.380;2023-04-30T01:55:34;94118.31;;;7.37;100.00
39301;BME280;25019;42.626;23.380;2023-04-30T01:58:04;94081.41;;;7.13;100.00
39301;BME280;25019;42.626;23.380;2023-04-30T02:00:32;94067.41;;;7.00;100.00
39301;BME280;25019;42.626;23.380;2023-04-30T02:02:58;94116.47;;;7.37;100.00
39301;BME280;25019;42.626;23.380;2023-04-30T02:05:24;94065.34;;;7.02;100.00
39301;BME280;25019;42.626;23.380;2023-04-30T02:07:51;94110.06;;;7.33;100.00
39301;BME280;25019;42.626;23.380;2023-04-30T02:10:20;94105.56;;;7.33;100.00
39301;BME280;25019;42.626;23.380;2023-04-30T02:12:46;94108.78;;;7.35;100.00
39301;BME280;25019;42.626;23.380;2023-04-30T02:15:12;94051.72;;;6.94;100.00
39301;BME280;25019;42.626;23.380;2023-04-30T02:17:40;94101.94;;;7.23;100.00
39301;BME280;25019;42.626;23.380;2023-04-30T02:20:07;94113.84;;;7.37;100.00
39301;BME280;25019;42.626;23.380;2023-04-30T02:22:33;94061.81;;;6.97;100.00
39301;BME280;25019;42.626;23.380;2023-04-30T02:24:59;94112.13;;;7.31;100.00
39301;BME280;25019;42.626;23.380;2023-04-30T02:27:25;94090.97;;;7.02;100.00
39301;BME280;25019;42.626;23.380;2023-04-30T02:29:52;94111.50;;;7.12;100.00
39301;BME280;25019;42.626;23.380;2023-04-30T02:32:18;94122.84;;;7.12;100.00
39301;BME280;25019;42.626;23.380;2023-04-30T02:34:44;94106.13;;;6.95;100.00
39301;BME280;25019;42.626;23.380;2023-04-30T02:37:10;94112.56;;;6.99;100.00
39301;BME280;25019;42.626;23.380;2023-04-30T02:39:36;94102.59;;;6.89;100.00
39301;BME280;25019;42.626;23.380;2023-04-30T02:42:02;94082.97;;;6.73;100.00
39301;BME280;25019;42.626;23.380;2023-04-30T02:44:29;94070.59;;;6.62;100.00
39301;BME280;25019;42.626;23.380;2023-04-30T02:46:55;94061.53;;;6.57;100.00
39301;BME280;25019;42.626;23.380;2023-04-30T02:49:20;94129.19;;;6.99;100.00
39301;BME280;25019;42.626;23.380;2023-04-30T02:51:46;94088.94;;;6.80;100.00
39301;BME280;25019;42.626;23.380;2023-04-30T02:54:12;94127.69;;;7.03;100.00
39301;BME280;25019;42.626;23.380;2023-04-30T02:56:38;94123.22;;;7.04;100.00
39301;BME280;25019;42.626;23.380;2023-04-30T02:59:04;94127.47;;;7.05;100.00
39301;BME280;25019;42.626;23.380;2023-04-30T03:01:30;94074.25;;;6.72;100.00
39301;BME280;25019;42.626;23.380;2023-04-30T03:03:55;94124.94;;;7.10;100.00
39301;BME280;25019;42.626;23.380;2023-04-30T03:06:22;94084.69;;;6.79;100.00
39301;BME280;25019;42.626;23.380;2023-04-30T03:08:48;94113.22;;;7.06;100.00
39301;BME280;25019;42.626;23.380;2023-04-30T03:11:14;94099.13;;;6.88;100.00
39301;BME280;25019;42.626;23.380;2023-04-30T03:13:40;94078.38;;;6.80;100.00
39301;BME280;25019;42.626;23.380;2023-04-30T03:16:05;94029.09;;;6.45;100.00
39301;BME280;25019;42.626;23.380;2023-04-30T03:18:31;94131.69;;;7.18;100.00
39301;BME280;25019;42.626;23.380;2023-04-30T03:20:57;94126.72;;;7.22;100.00
39301;BME280;25019;42.626;23.380;2023-04-30T03:23:25;94137.06;;;7.35;100.00
39301;BME280;25019;42.626;23.380;2023-04-30T03:25:51;94108.28;;;7.10;100.00
39301;BME280;25019;42.626;23.380;2023-04-30T03:28:17;94085.44;;;7.03;100.00
39301;BME280;25019;42.626;23.380;2023-04-30T03:30:43;94144.38;;;7.45;100.00
39301;BME280;25019;42.626;23.380;2023-04-30T03:33:08;94124.41;;;7.37;99.76
39301;BME280;25019;42.626;23.380;2023-04-30T03:35:34;94102.50;;;7.25;100.00
39301;BME280;25019;42.626;23.380;2023-04-30T03:38:00;94117.94;;;7.45;99.37
39301;BME280;25019;42.626;23.380;2023-04-30T03:40:26;94093.44;;;7.20;98.38
39301;BME280;25019;42.626;23.380;2023-04-30T03:42:52;94155.00;;;7.62;99.08
39301;BME280;25019;42.626;23.380;2023-04-30T03:45:18;94154.06;;;7.56;98.75
39301;BME280;25019;42.626;23.380;2023-04-30T03:47:44;94160.75;;;7.59;98.45
39301;BME280;25019;42.626;23.380;2023-04-30T03:50:10;94163.16;;;7.60;98.17
39301;BME280;25019;42.626;23.380;2023-04-30T03:52:36;94150.66;;;7.56;98.68
39301;BME280;25019;42.626;23.380;2023-04-30T03:55:03;94161.75;;;7.70;99.16
39301;BME280;25019;42.626;23.380;2023-04-30T03:57:28;94116.09;;;7.45;98.48
39301;BME280;25019;42.626;23.380;2023-04-30T03:59:55;94161.22;;;7.85;98.00
39301;BME280;25019;42.626;23.380;2023-04-30T04:02:21;94101.22;;;7.56;97.60
39301;BME280;25019;42.626;23.380;2023-04-30T04:04:47;94117.13;;;7.73;97.48
39301;BME280;25019;42.626;23.380;2023-04-30T04:07:13;94151.00;;;8.05;97.29
39301;BME280;25019;42.626;23.380;2023-04-30T04:09:39;94170.84;;;8.20;96.33
39301;BME280;25019;42.626;23.380;2023-04-30T04:12:05;94137.13;;;7.98;95.87
39301;BME280;25019;42.626;23.380;2023-04-30T04:14:31;94154.63;;;8.16;95.99
39301;BME280;25019;42.626;23.380;2023-04-30T04:16:57;94163.31;;;8.29;95.95
39301;BME280;25019;42.626;23.380;2023-04-30T04:19:25;94089.13;;;7.89;95.60
39301;BME280;25019;42.626;23.380;2023-04-30T04:21:51;94162.41;;;8.40;94.93
39301;BME280;25019;42.626;23.380;2023-04-30T04:24:17;94124.09;;;8.25;94.34
39301;BME280;25019;42.626;23.380;2023-04-30T04:26:42;94171.78;;;8.60;94.28
39301;BME280;25019;42.626;23.380;2023-04-30T04:29:09;94178.50;;;8.67;93.84
39301;BME280;25019;42.626;23.380;2023-04-30T04:31:36;94134.34;;;8.39;94.51
39301;BME280;25019;42.626;23.380;2023-04-30T04:34:03;94119.84;;;8.24;94.24
39301;BME280;25019;42.626;23.380;2023-04-30T04:36:30;94180.09;;;8.68;94.36
39301;BME280;25019;42.626;23.380;2023-04-30T04:38:56;94182.97;;;8.67;94.69
39301;BME280;25019;42.626;23.380;2023-04-30T04:41:35;94143.59;;;8.36;94.58
39301;BME280;25019;42.626;23.380;2023-04-30T04:44:02;94178.16;;;8.81;94.50
39301;BME280;25019;42.626;23.380;2023-04-30T04:46:33;94096.44;;;8.33;93.56
39301;BME280;25019;42.626;23.380;2023-04-30T04:48:59;94179.81;;;9.04;93.47
39301;BME280;25019;42.626;23.380;2023-04-30T04:51:25;94185.66;;;9.23;93.09
39301;BME280;25019;42.626;23.380;2023-04-30T04:53:51;94131.28;;;8.98;91.42
39301;BME280;25019;42.626;23.380;2023-04-30T04:56:17;94088.22;;;8.69;91.48
39301;BME280;25019;42.626;23.380;2023-04-30T04:58:43;94195.72;;;9.43;90.51
39301;BME280;25019;42.626;23.380;2023-04-30T05:01:09;94137.38;;;8.99;90.27
39301;BME280;25019;42.626;23.380;2023-04-30T05:03:35;94134.78;;;9.04;89.92
39301;BME280;25019;42.626;23.380;2023-04-30T05:06:04;94198.81;;;9.57;89.87
39301;BME280;25019;42.626;23.380;2023-04-30T05:08:30;94200.72;;;9.62;89.80
39301;BME280;25019;42.626;23.380;2023-04-30T05:10:56;94131.41;;;9.31;89.00
39301;BME280;25019;42.626;23.380;2023-04-30T05:13:22;94187.09;;;9.76;88.91
39301;BME280;25019;42.626;23.380;2023-04-30T05:15:50;94197.03;;;9.90;88.76
39301;BME280;25019;42.626;23.380;2023-04-30T05:18:16;94201.19;;;10.03;88.29
39301;BME280;25019;42.626;23.380;2023-04-30T05:20:41;94185.44;;;9.97;88.41
39301;BME280;25019;42.626;23.380;2023-04-30T05:23:07;94200.50;;;10.18;88.60
39301;BME280;25019;42.626;23.380;2023-04-30T05:25:34;94154.97;;;9.99;88.82
39301;BME280;25019;42.626;23.380;2023-04-30T05:28:00;94197.75;;;10.30;88.32
39301;BME280;25019;42.626;23.380;2023-04-30T05:30:26;94198.94;;;10.45;88.12
39301;BME280;25019;42.626;23.380;2023-04-30T05:32:52;94189.66;;;10.47;87.04
39301;BME280;25019;42.626;23.380;2023-04-30T05:35:18;94119.84;;;10.14;86.72
39301;BME280;25019;42.626;23.380;2023-04-30T05:37:44;94189.81;;;10.63;86.87
39301;BME280;25019;42.626;23.380;2023-04-30T05:40:10;94188.25;;;10.67;86.68
39301;BME280;25019;42.626;23.380;2023-04-30T05:42:37;94127.13;;;10.29;86.90
39301;BME280;25019;42.626;23.380;2023-04-30T05:45:06;94199.75;;;10.78;87.18
39301;BME280;25019;42.626;23.380;2023-04-30T05:47:41;94128.28;;;10.39;86.67
39301;BME280;25019;42.626;23.380;2023-04-30T05:50:08;94181.16;;;10.78;86.34
39301;BME280;25019;42.626;23.380;2023-04-30T05:52:34;94198.56;;;11.01;85.60
39301;BME280;25019;42.626;23.380;2023-04-30T05:55:00;94084.97;;;10.38;85.23
39301;BME280;25019;42.626;23.380;2023-04-30T05:57:25;94152.25;;;10.87;85.26
39301;BME280;25019;42.626;23.380;2023-04-30T05:59:51;94201.44;;;11.32;84.58
39301;BME280;25019;42.626;23.380;2023-04-30T06:02:18;94205.44;;;11.35;85.52
39301;BME280;25019;42.626;23.380;2023-04-30T06:04:43;94209.72;;;11.36;85.32
39301;BME280;25019;42.626;23.380;2023-04-30T06:07:09;94188.09;;;11.22;84.91
39301;BME280;25019;42.626;23.380;2023-04-30T06:09:35;94183.84;;;11.21;84.74
39301;BME280;25019;42.626;23.380;2023-04-30T06:12:01;94147.59;;;11.09;83.54
39301;BME280;25019;42.626;23.380;2023-04-30T06:14:27;94203.44;;;11.58;82.66
39301;BME280;25019;42.626;23.380;2023-04-30T06:16:53;94097.91;;;11.05;81.78
39301;BME280;25019;42.626;23.380;2023-04-30T06:19:18;94205.41;;;11.88;80.80
39301;BME280;25019;42.626;23.380;2023-04-30T06:21:45;94212.41;;;12.05;79.80
39301;BME280;25019;42.626;23.380;2023-04-30T06:24:11;94148.44;;;11.74;79.69
39301;BME280;25019;42.626;23.380;2023-04-30T06:26:36;94164.19;;;11.96;78.40
39301;BME280;25019;42.626;23.380;2023-04-30T06:29:02;93910.84;;;10.37;76.96
39301;BME280;25019;42.626;23.380;2023-04-30T06:31:44;94042.50;;;11.50;76.11
39301;BME280;25019;42.626;23.380;2023-04-30T06:34:11;94047.34;;;11.74;75.61
39301;BME280;25019;42.626;23.380;2023-04-30T06:36:37;94022.88;;;11.77;74.35
39301;BME280;25019;42.626;23.380;2023-04-30T06:39:03;94224.75;;;13.25;73.87
39301;BME280;25019;42.626;23.380;2023-04-30T06:41:29;94231.94;;;13.40;72.69
39301;BME280;25019;42.626;23.380;2023-04-30T06:43:55;94124.34;;;12.79;71.59
39301;BME280;25019;42.626;23.380;2023-04-30T06:46:21;93909.56;;;11.50;70.98
39301;BME280;25019;42.626;23.380;2023-04-30T06:48:48;94130.72;;;12.72;70.78
39301;BME280;25019;42.626;23.380;2023-04-30T06:51:17;93926.53;;;11.33;70.82
39301;BME280;25019;42.626;23.380;2023-04-30T06:53:43;94138.97;;;12.92;71.00
39301;BME280;25019;42.626;23.380;2023-04-30T06:56:09;94165.31;;;13.19;70.50
39301;BME280;25019;42.626;23.380;2023-04-30T06:58:35;94144.22;;;13.28;69.86
39301;BME280;25019;42.626;23.380;2023-04-30T07:01:01;94157.50;;;13.54;68.54
39301;BME280;25019;42.626;23.380;2023-04-30T07:03:27;93997.75;;;12.81;68.16
39301;BME280;25019;42.626;23.380;2023-04-30T07:05:53;93921.56;;;12.70;67.42
39301;BME280;25019;42.626;23.380;2023-04-30T07:08:19;94148.22;;;14.46;66.59
39301;BME280;25019;42.626;23.380;2023-04-30T07:10:45;94156.00;;;14.77;65.52
39301;BME280;25019;42.626;23.380;2023-04-30T07:13:11;93919.91;;;13.34;64.47
39301;BME280;25019;42.626;23.380;2023-04-30T07:15:38;94145.00;;;14.84;64.64
39301;BME280;25019;42.626;23.380;2023-04-30T07:18:03;94215.53;;;15.18;64.37
39301;BME280;25019;42.626;23.380;2023-04-30T07:20:29;94222.72;;;15.22;64.80
39301;BME280;25019;42.626;23.380;2023-04-30T07:22:55;94160.22;;;14.83;63.94
39301;BME280;25019;42.626;23.380;2023-04-30T07:25:21;94221.59;;;14.99;64.53
39301;BME280;25019;42.626;23.380;2023-04-30T07:27:47;94225.69;;;14.91;65.51
39301;BME280;25019;42.626;23.380;2023-04-30T07:30:13;94222.03;;;14.77;66.16
39301;BME280;25019;42.626;23.380;2023-04-30T07:32:38;94227.88;;;14.84;66.54
39301;BME280;25019;42.626;23.380;2023-04-30T07:35:05;94165.91;;;14.37;66.33
39301;BME280;25019;42.626;23.380;2023-04-30T07:37:31;94231.34;;;14.79;66.99
39301;BME280;25019;42.626;23.380;2023-04-30T07:39:57;94212.44;;;14.71;66.99
39301;BME280;25019;42.626;23.380;2023-04-30T07:42:23;94125.19;;;14.11;67.51
39301;BME280;25019;42.626;23.380;2023-04-30T07:44:49;94216.16;;;14.75;67.71
39301;BME280;25019;42.626;23.380;2023-04-30T07:47:14;94225.53;;;14.77;67.63
39301;BME280;25019;42.626;23.380;2023-04-30T07:49:40;94234.25;;;14.88;67.86
39301;BME280;25019;42.626;23.380;2023-04-30T07:52:06;94181.25;;;14.56;67.08
39301;BME280;25019;42.626;23.380;2023-04-30T07:54:35;94214.75;;;14.82;66.92
39301;BME280;25019;42.626;23.380;2023-04-30T07:57:03;94180.31;;;14.81;66.59
39301;BME280;25019;42.626;23.380;2023-04-30T07:59:30;94187.63;;;15.00;65.36
39301;BME280;25019;42.626;23.380;2023-04-30T08:01:56;94226.31;;;15.42;65.14
39301;BME280;25019;42.626;23.380;2023-04-30T08:04:22;94231.72;;;15.61;64.52
39301;BME280;25019;42.626;23.380;2023-04-30T08:06:48;94231.38;;;15.68;62.19
39301;BME280;25019;42.626;23.380;2023-04-30T08:09:13;94167.94;;;15.44;61.94
39301;BME280;25019;42.626;23.380;2023-04-30T08:11:40;94217.94;;;15.97;60.20
39301;BME280;25019;42.626;23.380;2023-04-30T08:14:06;94238.25;;;16.03;60.34
39301;BME280;25019;42.626;23.380;2023-04-30T08:16:32;94239.78;;;16.10;60.60
39301;BME280;25019;42.626;23.380;2023-04-30T08:18:57;94229.28;;;16.13;58.93
39301;BME280;25019;42.626;23.380;2023-04-30T08:21:23;94168.22;;;15.91;58.23
39301;BME280;25019;42.626;23.380;2023-04-30T08:23:49;94242.78;;;16.46;57.06
39301;BME280;25019;42.626;23.380;2023-04-30T08:26:15;94229.97;;;16.43;57.28
39301;BME280;25019;42.626;23.380;2023-04-30T08:28:41;94217.22;;;16.54;57.02
39301;BME280;25019;42.626;23.380;2023-04-30T08:31:07;94218.72;;;16.41;56.23
39301;BME280;25019;42.626;23.380;2023-04-30T08:33:33;94235.78;;;16.51;56.39
39301;BME280;25019;42.626;23.380;2023-04-30T08:35:58;94238.91;;;16.58;56.69
39301;BME280;25019;42.626;23.380;2023-04-30T08:38:24;94224.22;;;16.31;55.41
39301;BME280;25019;42.626;23.380;2023-04-30T08:41:05;94213.69;;;15.96;56.10
39301;BME280;25019;42.626;23.380;2023-04-30T08:43:33;94213.97;;;15.46;56.57
39301;BME280;25019;42.626;23.380;2023-04-30T08:46:00;94240.81;;;15.36;57.70
39301;BME280;25019;42.626;23.380;2023-04-30T08:48:28;94214.22;;;15.45;57.32
39301;BME280;25019;42.626;23.380;2023-04-30T08:51:01;94223.41;;;15.63;57.03
39301;BME280;25019;42.626;23.380;2023-04-30T08:53:27;94232.06;;;15.79;56.36
39301;BME280;25019;42.626;23.380;2023-04-30T08:55:53;94207.50;;;15.71;55.72
39301;BME280;25019;42.626;23.380;2023-04-30T08:58:19;94221.06;;;15.80;56.19
39301;BME280;25019;42.626;23.380;2023-04-30T09:00:45;94234.44;;;15.80;56.21
39301;BME280;25019;42.626;23.380;2023-04-30T09:03:11;94174.91;;;15.45;56.64
39301;BME280;25019;42.626;23.380;2023-04-30T09:05:37;94164.00;;;15.36;56.67
39301;BME280;25019;42.626;23.380;2023-04-30T09:08:03;94162.56;;;15.20;57.00
39301;BME280;25019;42.626;23.380;2023-04-30T09:10:31;93980.78;;;13.72;57.60
39301;BME280;25019;42.626;23.380;2023-04-30T09:13:03;94087.72;;;14.26;57.24
39301;BME280;25019;42.626;23.380;2023-04-30T09:15:32;94050.03;;;13.93;58.07
39301;BME280;25019;42.626;23.380;2023-04-30T09:18:17;94157.25;;;14.50;58.85
39301;BME280;25019;42.626;23.380;2023-04-30T09:23:16;94036.53;;;14.08;58.74
39301;BME280;25019;42.626;23.380;2023-04-30T09:25:45;94047.53;;;14.36;58.75
39301;BME280;25019;42.626;23.380;2023-04-30T09:28:12;93966.19;;;14.23;58.55
39301;BME280;25019;42.626;23.380;2023-04-30T09:30:41;94191.13;;;16.02;58.21
39301;BME280;25019;42.626;23.380;2023-04-30T09:33:09;94189.91;;;16.33;56.07
39301;BME280;25019;42.626;23.380;2023-04-30T09:35:37;94179.91;;;16.58;54.88
39301;BME280;25019;42.626;23.380;2023-04-30T09:38:29;94119.00;;;16.25;52.78
39301;BME280;25019;42.626;23.380;2023-04-30T09:40:58;94069.44;;;15.90;52.75
39301;BME280;25019;42.626;23.380;2023-04-30T09:43:25;94022.34;;;15.64;52.00
39301;BME280;25019;42.626;23.380;2023-04-30T09:45:51;94073.47;;;16.06;52.05
39301;BME280;25019;42.626;23.380;2023-04-30T09:48:24;94115.31;;;16.40;50.72
39301;BME280;25019;42.626;23.380;2023-04-30T09:50:51;93962.31;;;15.70;51.36
39301;BME280;25019;42.626;23.380;2023-04-30T09:53:21;93874.00;;;15.51;50.06
39301;BME280;25019;42.626;23.380;2023-04-30T09:55:49;94062.94;;;17.37;49.51
39301;BME280;25019;42.626;23.380;2023-04-30T09:58:19;94001.63;;;17.30;48.14
39301;BME280;25019;42.626;23.380;2023-04-30T10:00:45;94008.00;;;17.20;46.84
39301;BME280;25019;42.626;23.380;2023-04-30T10:03:14;93900.63;;;16.42;46.49
39301;BME280;25019;42.626;23.380;2023-04-30T10:05:47;94152.22;;;17.99;47.46
39301;BME280;25019;42.626;23.380;2023-04-30T10:08:26;94151.59;;;18.16;47.39
39301;BME280;25019;42.626;23.380;2023-04-30T10:10:58;94155.97;;;18.25;47.26
39301;BME280;25019;42.626;23.380;2023-04-30T10:13:30;93878.38;;;16.69;46.88
39301;BME280;25019;42.626;23.380;2023-04-30T10:16:06;94106.75;;;18.39;46.69
39301;BME280;25019;42.626;23.380;2023-04-30T10:18:38;94063.97;;;18.29;46.54
39301;BME280;25019;42.626;23.380;2023-04-30T10:21:06;94128.41;;;19.02;45.93
39301;BME280;25019;42.626;23.380;2023-04-30T10:23:37;94035.34;;;18.55;45.48
39301;BME280;25019;42.626;23.380;2023-04-30T10:26:04;94135.81;;;19.28;46.33
39301;BME280;25019;42.626;23.380;2023-04-30T10:28:31;94116.13;;;19.19;45.75
39301;BME280;25019;42.626;23.380;2023-04-30T10:30:57;94082.31;;;18.49;45.08
39301;BME280;25019;42.626;23.380;2023-04-30T10:35:56;94142.84;;;18.10;46.28
39301;BME280;25019;42.626;23.380;2023-04-30T10:38:25;94088.69;;;17.10;48.05
39301;BME280;25019;42.626;23.380;2023-04-30T10:40:56;94205.19;;;16.71;52.08
39301;BME280;25019;42.626;23.380;2023-04-30T10:43:29;93920.81;;;13.94;56.96
39301;BME280;25019;42.626;23.380;2023-04-30T10:45:58;93906.88;;;12.12;66.20
39301;BME280;25019;42.626;23.380;2023-04-30T10:48:24;93951.31;;;11.60;69.53
39301;BME280;25019;42.626;23.380;2023-04-30T10:50:55;94063.84;;;11.81;77.01
39301;BME280;25019;42.626;23.380;2023-04-30T10:53:22;94209.06;;;12.66;81.50
39301;BME280;25019;42.626;23.380;2023-04-30T10:55:57;94206.66;;;12.85;81.48
39301;BME280;25019;42.626;23.380;2023-04-30T10:58:32;94188.81;;;12.96;83.32
39301;BME280;25019;42.626;23.380;2023-04-30T11:01:12;94200.47;;;13.42;83.84
39301;BME280;25019;42.626;23.380;2023-04-30T11:03:40;94059.03;;;12.81;81.49
39301;BME280;25019;42.626;23.380;2023-04-30T11:06:13;94064.25;;;13.17;80.80
39301;BME280;25019;42.626;23.380;2023-04-30T11:08:47;94192.91;;;14.35;78.34
39301;BME280;25019;42.626;23.380;2023-04-30T11:11:17;94190.19;;;14.80;76.66
39301;BME280;25019;42.626;23.380;2023-04-30T11:13:58;94185.88;;;15.43;77.17
39301;BME280;25019;42.626;23.380;2023-04-30T11:16:32;94182.41;;;15.92;75.77
39301;BME280;25019;42.626;23.380;2023-04-30T11:19:13;94179.84;;;16.25;71.61
39301;BME280;25019;42.626;23.380;2023-04-30T11:27:26;94174.50;;;18.13;61.15
39301;BME280;25019;42.626;23.380;2023-04-30T11:29:53;94101.47;;;17.97;55.10
39301;BME280;25019;42.626;23.380;2023-04-30T11:32:24;94167.00;;;18.61;52.59
39301;BME280;25019;42.626;23.380;2023-04-30T11:34:51;94147.19;;;18.34;52.60
39301;BME280;25019;42.626;23.380;2023-04-30T11:37:28;94055.31;;;17.30;51.97
39301;BME280;25019;42.626;23.380;2023-04-30T11:39:56;94165.44;;;17.95;51.69
39301;BME280;25019;42.626;23.380;2023-04-30T11:42:22;94061.06;;;17.37;50.13
39301;BME280;25019;42.626;23.380;2023-04-30T11:44:47;94163.44;;;18.15;49.50
39301;BME280;25019;42.626;23.380;2023-04-30T11:47:13;94132.78;;;18.16;49.28
39301;BME280;25019;42.626;23.380;2023-04-30T11:49:42;94155.94;;;18.39;49.97
39301;BME280;25019;42.626;23.380;2023-04-30T11:52:08;94162.94;;;18.63;50.48
39301;BME280;25019;42.626;23.380;2023-04-30T11:54:37;94157.28;;;18.14;53.11
39301;BME280;25019;42.626;23.380;2023-04-30T11:57:04;94136.59;;;17.73;54.10
39301;BME280;25019;42.626;23.380;2023-04-30T11:59:39;94151.63;;;17.46;56.29
39301;BME280;25019;42.626;23.380;2023-04-30T12:02:08;94069.34;;;16.47;56.64
39301;BME280;25019;42.626;23.380;2023-04-30T12:04:35;94179.03;;;17.29;56.99
39301;BME280;25019;42.626;23.380;2023-04-30T12:07:01;94171.03;;;16.96;58.92
39301;BME280;25019;42.626;23.380;2023-04-30T12:09:28;94134.59;;;16.75;58.25
39301;BME280;25019;42.626;23.380;2023-04-30T12:11:54;94166.50;;;16.91;58.24
39301;BME280;25019;42.626;23.380;2023-04-30T12:14:23;94169.28;;;17.19;57.67
39301;BME280;25019;42.626;23.380;2023-04-30T12:16:50;94158.34;;;17.15;56.71
39301;BME280;25019;42.626;23.380;2023-04-30T12:19:18;94170.31;;;17.37;59.25
39301;BME280;25019;42.626;23.380;2023-04-30T12:21:44;94116.34;;;16.91;58.14
39301;BME280;25019;42.626;23.380;2023-04-30T12:24:16;94139.91;;;16.61;60.14
39301;BME280;25019;42.626;23.380;2023-04-30T12:26:43;94041.72;;;15.37;61.63
39301;BME280;25019;42.626;23.380;2023-04-30T12:29:13;93969.16;;;15.00;62.28
39301;BME280;25019;42.626;23.380;2023-04-30T12:31:43;94010.09;;;14.95;59.86
39301;BME280;25019;42.626;23.380;2023-04-30T12:34:13;93916.16;;;14.05;63.58
39301;BME280;25019;42.626;23.380;2023-04-30T12:36:40;93900.38;;;13.50;67.27
39301;BME280;25019;42.626;23.380;2023-04-30T12:39:12;94090.03;;;14.67;68.51
39301;BME280;25019;42.626;23.380;2023-04-30T12:41:40;94193.97;;;15.09;70.96
39301;BME280;25019;42.626;23.380;2023-04-30T12:46:47;94200.75;;;14.16;73.79
39301;BME280;25019;42.626;23.380;2023-04-30T12:49:33;94194.63;;;14.11;77.90
39301;BME280;25019;42.626;23.380;2023-04-30T12:52:01;94137.38;;;13.82;76.99
39301;BME280;25019;42.626;23.380;2023-04-30T12:54:30;94200.81;;;14.51;77.48
39301;BME280;25019;42.626;23.380;2023-04-30T12:57:10;94180.66;;;14.69;77.55
39301;BME280;25019;42.626;23.380;2023-04-30T12:59:56;94163.94;;;14.88;76.42
39301;BME280;25019;42.626;23.380;2023-04-30T13:02:27;94125.94;;;14.91;75.20
39301;BME280;25019;42.626;23.380;2023-04-30T13:04:53;94182.31;;;15.24;73.47
39301;BME280;25019;42.626;23.380;2023-04-30T13:07:19;94170.06;;;15.18;72.66
39301;BME280;25019;42.626;23.380;2023-04-30T13:09:46;94185.81;;;15.49;71.03
39301;BME280;25019;42.626;23.380;2023-04-30T13:12:12;94183.72;;;15.70;70.18
39301;BME280;25019;42.626;23.380;2023-04-30T13:14:37;94140.47;;;15.57;70.27
39301;BME280;25019;42.626;23.380;2023-04-30T13:17:03;94174.25;;;16.02;69.58
39301;BME280;25019;42.626;23.380;2023-04-30T13:19:31;94173.69;;;16.43;66.95
39301;BME280;25019;42.626;23.380;2023-04-30T13:21:58;94105.84;;;16.29;64.26
39301;BME280;25019;42.626;23.380;2023-04-30T13:24:24;94106.88;;;16.47;61.50
39301;BME280;25019;42.626;23.380;2023-04-30T13:26:50;94143.75;;;16.88;60.96